sensor_id;sensor_type;location;lat;lon;timestamp;temperature;humidity
16643;DHT22;8435;52.184;5.406;2023-09-19T00:00:07;17.90;99.90
16643;DHT22;8435;52.184;5.406;2023-09-19T00:02:35;17.90;99.90
16643;DHT22;8435;52.184;5.406;2023-09-19T00:05:05;17.80;99.90
16643;DHT22;8435;52.184;5.406;2023-09-19T00:07:34;17.80;99.90
16643;DHT22;8435;52.184;5.406;2023-09-19T00:10:05;17.80;99.90
16643;DHT22;8435;52.184;5.406;2023-09-19T00:12:34;17.80;99.90
16643;DHT22;8435;52.184;5.406;2023-09-19T00:15:01;17.70;99.90
16643;DHT22;8435;52.184;5.406;2023-09-19T00:17:32;17.70;99.90
16643;DHT22;8435;52.184;5.406;2023-09-19T00:20:04;17.70;99.90
16643;DHT22;8435;52.184;5.406;2023-09-19T00:22:35;17.70;99.90
16643;DHT22;8435;52.184;5.406;2023-09-19T00:25:05;17.70;99.90
16643;DHT22;8435;52.184;5.406;2023-09-19T00:27:32;17.70;99.90
16643;DHT22;8435;52.184;5.406;2023-09-19T00:30:00;17.60;99.90
16643;DHT22;8435;52.184;5.406;2023-09-19T00:32:29;17.60;99.90
16643;DHT22;8435;52.184;5.406;2023-09-19T00:35:00;17.60;99.90
16643;DHT22;8435;52.184;5.406;2023-09-19T00:37:26;17.60;99.90
16643;DHT22;8435;52.184;5.406;2023-09-19T00:39:59;17.60;99.90
16643;DHT22;8435;52.184;5.406;2023-09-19T00:42:28;17.50;99.90
16643;DHT22;8435;52.184;5.406;2023-09-19T00:44:54;17.50;99.90
16643;DHT22;8435;52.184;5.406;2023-09-19T00:47:21;17.50;99.90
16643;DHT22;8435;52.184;5.406;2023-09-19T00:49:48;17.50;99.90
16643;DHT22;8435;52.184;5.406;2023-09-19T00:52:19;17.50;99.90
16643;DHT22;8435;52.184;5.406;2023-09-19T00:54:50;17.50;99.90
16643;DHT22;8435;52.184;5.406;2023-09-19T00:57:20;17.50;99.90
16643;DHT22;8435;52.184;5.406;2023-09-19T00:59:48;17.50;99.90
16643;DHT22;8435;52.184;5.406;2023-09-19T01:02:17;17.50;99.90
16643;DHT22;8435;52.184;5.406;2023-09-19T01:04:44;17.50;99.90
16643;DHT22;8435;52.184;5.406;2023-09-19T01:07:11;17.50;99.90
16643;DHT22;8435;52.184;5.406;2023-09-19T01:09:41;17.50;99.90
16643;DHT22;8435;52.184;5.406;2023-09-19T01:12:09;17.50;99.90
16643;DHT22;8435;52.184;5.406;2023-09-19T01:14:41;17.50;99.90
16643;DHT22;8435;52.184;5.406;2023-09-19T01:17:17;17.50;99.90
16643;DHT22;8435;52.184;5.406;2023-09-19T01:22:56;17.50;99.90
16643;DHT22;8435;52.184;5.406;2023-09-19T01:28:39;17.50;99.90
16643;DHT22;8435;52.184;5.406;2023-09-19T01:31:13;17.50;99.90
16643;DHT22;8435;52.184;5.406;2023-09-19T01:34:00;17.40;99.90
16643;DHT22;8435;52.184;5.406;2023-09-19T01:36:31;17.40;99.90
16643;DHT22;8435;52.184;5.406;2023-09-19T01:39:00;17.40;99.90
16643;DHT22;8435;52.184;5.406;2023-09-19T01:41:41;17.40;99.90
16643;DHT22;8435;52.184;5.406;2023-09-19T01:44:17;17.30;99.90
16643;DHT22;8435;52.184;5.406;2023-09-19T01:46:47;17.40;99.90
16643;DHT22;8435;52.184;5.406;2023-09-19T01:49:22;17.30;99.90
16643;DHT22;8435;52.184;5.406;2023-09-19T01:51:59;17.30;99.90
16643;DHT22;8435;52.184;5.406;2023-09-19T01:54:33;17.30;99.90
16643;DHT22;8435;52.184;5.406;2023-09-19T01:57:08;17.30;99.90
16643;DHT22;8435;52.184;5.406;2023-09-19T01:59:41;17.30;99.90
16643;DHT22;8435;52.184;5.406;2023-09-19T02:02:12;17.30;99.90
16643;DHT22;8435;52.184;5.406;2023-09-19T02:04:40;17.30;99.90
16643;DHT22;8435;52.184;5.406;2023-09-19T02:07:07;17.30;99.90
16643;DHT22;8435;52.184;5.406;2023-09-19T02:09:39;17.30;99.90
16643;DHT22;8435;52.184;5.406;2023-09-19T02:12:09;17.30;99.90
16643;DHT22;8435;52.184;5.406;2023-09-19T02:14:35;17.30;99.90
16643;DHT22;8435;52.184;5.406;2023-09-19T02:17:03;17.30;99.90
16643;DHT22;8435;52.184;5.406;2023-09-19T02:19:34;17.30;99.90
16643;DHT22;8435;52.184;5.406;2023-09-19T02:22:06;17.30;99.90
16643;DHT22;8435;52.184;5.406;2023-09-19T02:24:36;17.30;99.90
16643;DHT22;8435;52.184;5.406;2023-09-19T02:27:03;17.30;99.90
16643;DHT22;8435;52.184;5.406;2023-09-19T02:29:33;17.30;99.90
16643;DHT22;8435;52.184;5.406;2023-09-19T02:32:00;17.30;99.90
16643;DHT22;8435;52.184;5.406;2023-09-19T02:34:31;17.20;99.90
16643;DHT22;8435;52.184;5.406;2023-09-19T02:37:03;17.30;99.90
16643;DHT22;8435;52.184;5.406;2023-09-19T02:39:31;17.30;99.90
16643;DHT22;8435;52.184;5.406;2023-09-19T02:41:57;17.30;99.90
16643;DHT22;8435;52.184;5.406;2023-09-19T02:44:24;17.30;99.90
16643;DHT22;8435;52.184;5.406;2023-09-19T02:46:51;17.30;99.90
16643;DHT22;8435;52.184;5.406;2023-09-19T02:49:18;17.30;99.90
16643;DHT22;8435;52.184;5.406;2023-09-19T02:51:45;17.30;99.90
16643;DHT22;8435;52.184;5.406;2023-09-19T02:54:14;17.30;99.90
16643;DHT22;8435;52.184;5.406;2023-09-19T02:56:43;17.30;99.90
16643;DHT22;8435;52.184;5.406;2023-09-19T02:59:10;17.20;99.90
16643;DHT22;8435;52.184;5.406;2023-09-19T03:01:37;17.20;99.90
16643;DHT22;8435;52.184;5.406;2023-09-19T03:04:04;17.20;99.90
16643;DHT22;8435;52.184;5.406;2023-09-19T03:06:33;17.20;99.90
16643;DHT22;8435;52.184;5.406;2023-09-19T03:08:59;17.20;99.90
16643;DHT22;8435;52.184;5.406;2023-09-19T03:11:27;17.20;99.90
16643;DHT22;8435;52.184;5.406;2023-09-19T03:13:54;17.20;99.90
16643;DHT22;8435;52.184;5.406;2023-09-19T03:16:21;17.20;99.90
16643;DHT22;8435;52.184;5.406;2023-09-19T03:18:51;17.20;99.90
16643;DHT22;8435;52.184;5.406;2023-09-19T03:21:20;17.10;99.90
16643;DHT22;8435;52.184;5.406;2023-09-19T03:23:47;17.10;99.90
16643;DHT22;8435;52.184;5.406;2023-09-19T03:26:14;17.10;99.90
16643;DHT22;8435;52.184;5.406;2023-09-19T03:28:43;17.10;99.90
16643;DHT22;8435;52.184;5.406;2023-09-19T03:31:11;17.10;99.90
16643;DHT22;8435;52.184;5.406;2023-09-19T03:33:38;17.00;99.90
16643;DHT22;8435;52.184;5.406;2023-09-19T03:36:05;17.00;99.90
16643;DHT22;8435;52.184;5.406;2023-09-19T03:38:33;16.90;99.90
16643;DHT22;8435;52.184;5.406;2023-09-19T03:41:00;16.90;99.90
16643;DHT22;8435;52.184;5.406;2023-09-19T03:43:27;16.90;99.90
16643;DHT22;8435;52.184;5.406;2023-09-19T03:45:55;16.90;99.90
16643;DHT22;8435;52.184;5.406;2023-09-19T03:48:23;16.80;99.90
16643;DHT22;8435;52.184;5.406;2023-09-19T03:50:49;16.80;99.90
16643;DHT22;8435;52.184;5.406;2023-09-19T03:53:18;16.80;99.90
16643;DHT22;8435;52.184;5.406;2023-09-19T03:55:45;16.80;99.90
16643;DHT22;8435;52.184;5.406;2023-09-19T03:58:13;16.70;99.90
16643;DHT22;8435;52.184;5.406;2023-09-19T04:00:40;16.70;99.90
16643;DHT22;8435;52.184;5.406;2023-09-19T04:03:08;16.70;99.90
16643;DHT22;8435;52.184;5.406;2023-09-19T04:05:44;16.60;99.90
16643;DHT22;8435;52.184;5.406;2023-09-19T04:08:11;16.60;99.90
16643;DHT22;8435;52.184;5.406;2023-09-19T04:10:39;16.60;99.90
16643;DHT22;8435;52.184;5.406;2023-09-19T04:13:06;16.60;99.90
16643;DHT22;8435;52.184;5.406;2023-09-19T04:15:33;16.50;99.90
16643;DHT22;8435;52.184;5.406;2023-09-19T04:17:59;16.50;99.90
16643;DHT22;8435;52.184;5.406;2023-09-19T04:20:30;16.50;99.90
16643;DHT22;8435;52.184;5.406;2023-09-19T04:22:57;16.40;99.90
16643;DHT22;8435;52.184;5.406;2023-09-19T04:25:25;16.40;99.90
16643;DHT22;8435;52.184;5.406;2023-09-19T04:27:53;16.40;99.90
16643;DHT22;8435;52.184;5.406;2023-09-19T04:30:20;16.40;99.90
16643;DHT22;8435;52.184;5.406;2023-09-19T04:32:46;16.40;99.90
16643;DHT22;8435;52.184;5.406;2023-09-19T04:35:16;16.40;99.90
16643;DHT22;8435;52.184;5.406;2023-09-19T04:37:44;16.40;99.90
16643;DHT22;8435;52.184;5.406;2023-09-19T04:40:12;16.40;99.90
16643;DHT22;8435;52.184;5.406;2023-09-19T04:42:43;16.40;99.90
16643;DHT22;8435;52.184;5.406;2023-09-19T04:45:10;16.40;99.90
16643;DHT22;8435;52.184;5.406;2023-09-19T04:47:40;16.40;99.90
16643;DHT22;8435;52.184;5.406;2023-09-19T04:50:10;16.40;99.90
16643;DHT22;8435;52.184;5.406;2023-09-19T04:52:40;16.40;99.90
16643;DHT22;8435;52.184;5.406;2023-09-19T04:55:11;16.30;99.90
16643;DHT22;8435;52.184;5.406;2023-09-19T04:57:43;16.40;99.90
16643;DHT22;8435;52.184;5.406;2023-09-19T05:00:12;16.30;99.90
16643;DHT22;8435;52.184;5.406;2023-09-19T05:02:40;16.30;99.90
16643;DHT22;8435;52.184;5.406;2023-09-19T05:05:08;16.30;99.90
16643;DHT22;8435;52.184;5.406;2023-09-19T05:07:35;16.30;99.90
16643;DHT22;8435;52.184;5.406;2023-09-19T05:10:02;16.30;99.90
16643;DHT22;8435;52.184;5.406;2023-09-19T05:12:33;16.30;99.90
16643;DHT22;8435;52.184;5.406;2023-09-19T05:15:01;16.30;99.90
16643;DHT22;8435;52.184;5.406;2023-09-19T05:17:29;16.20;99.90
16643;DHT22;8435;52.184;5.406;2023-09-19T05:19:55;16.20;99.90
16643;DHT22;8435;52.184;5.406;2023-09-19T05:22:23;16.20;99.90
16643;DHT22;8435;52.184;5.406;2023-09-19T05:24:50;16.10;99.90
16643;DHT22;8435;52.184;5.406;2023-09-19T05:27:19;16.10;99.90
16643;DHT22;8435;52.184;5.406;2023-09-19T05:29:48;16.10;99.90
16643;DHT22;8435;52.184;5.406;2023-09-19T05:32:16;16.10;99.90
16643;DHT22;8435;52.184;5.406;2023-09-19T05:34:45;16.10;99.90
16643;DHT22;8435;52.184;5.406;2023-09-19T05:37:15;16.10;99.90
16643;DHT22;8435;52.184;5.406;2023-09-19T05:39:42;16.10;99.90
16643;DHT22;8435;52.184;5.406;2023-09-19T05:42:10;16.10;99.90
16643;DHT22;8435;52.184;5.406;2023-09-19T05:44:37;16.00;99.90
16643;DHT22;8435;52.184;5.406;2023-09-19T05:47:05;16.00;99.90
16643;DHT22;8435;52.184;5.406;2023-09-19T05:49:34;16.10;99.90
16643;DHT22;8435;52.184;5.406;2023-09-19T05:52:03;16.10;99.90
16643;DHT22;8435;52.184;5.406;2023-09-19T05:54:30;16.00;99.90
16643;DHT22;8435;52.184;5.406;2023-09-19T05:56:58;16.00;99.90
16643;DHT22;8435;52.184;5.406;2023-09-19T05:59:25;16.10;99.90
16643;DHT22;8435;52.184;5.406;2023-09-19T06:01:53;16.10;99.90
16643;DHT22;8435;52.184;5.406;2023-09-19T06:04:22;16.10;99.90
16643;DHT22;8435;52.184;5.406;2023-09-19T06:06:49;16.10;99.90
16643;DHT22;8435;52.184;5.406;2023-09-19T06:09:16;16.20;99.90
16643;DHT22;8435;52.184;5.406;2023-09-19T06:11:44;16.20;99.90
16643;DHT22;8435;52.184;5.406;2023-09-19T06:14:14;16.20;99.90
16643;DHT22;8435;52.184;5.406;2023-09-19T06:16:42;16.20;99.90
16643;DHT22;8435;52.184;5.406;2023-09-19T06:19:09;16.30;99.90
16643;DHT22;8435;52.184;5.406;2023-09-19T06:21:39;16.30;99.90
16643;DHT22;8435;52.184;5.406;2023-09-19T06:24:06;16.30;99.90
16643;DHT22;8435;52.184;5.406;2023-09-19T06:26:33;16.40;99.90
16643;DHT22;8435;52.184;5.406;2023-09-19T06:29:00;16.40;99.90
16643;DHT22;8435;52.184;5.406;2023-09-19T06:31:26;16.50;99.90
16643;DHT22;8435;52.184;5.406;2023-09-19T06:33:53;16.50;99.90
16643;DHT22;8435;52.184;5.406;2023-09-19T06:36:20;16.60;99.90
16643;DHT22;8435;52.184;5.406;2023-09-19T06:38:48;16.60;99.90
16643;DHT22;8435;52.184;5.406;2023-09-19T06:41:17;16.60;99.90
16643;DHT22;8435;52.184;5.406;2023-09-19T06:43:44;16.70;99.90
16643;DHT22;8435;52.184;5.406;2023-09-19T06:46:10;16.70;99.90
16643;DHT22;8435;52.184;5.406;2023-09-19T06:48:39;16.80;99.90
16643;DHT22;8435;52.184;5.406;2023-09-19T06:51:07;16.80;99.90
16643;DHT22;8435;52.184;5.406;2023-09-19T06:53:35;16.90;99.90
16643;DHT22;8435;52.184;5.406;2023-09-19T06:56:05;16.90;99.90
16643;DHT22;8435;52.184;5.406;2023-09-19T06:58:34;17.00;99.90
16643;DHT22;8435;52.184;5.406;2023-09-19T07:01:02;17.00;99.90
16643;DHT22;8435;52.184;5.406;2023-09-19T07:03:29;17.10;99.90
16643;DHT22;8435;52.184;5.406;2023-09-19T07:05:56;17.10;99.90
16643;DHT22;8435;52.184;5.406;2023-09-19T07:08:24;17.10;99.90
16643;DHT22;8435;52.184;5.406;2023-09-19T07:10:50;17.20;99.90
16643;DHT22;8435;52.184;5.406;2023-09-19T07:13:20;17.20;99.90
16643;DHT22;8435;52.184;5.406;2023-09-19T07:15:47;17.30;99.90
16643;DHT22;8435;52.184;5.406;2023-09-19T07:18:16;17.30;99.90
16643;DHT22;8435;52.184;5.406;2023-09-19T07:20:46;17.40;99.90
16643;DHT22;8435;52.184;5.406;2023-09-19T07:23:15;17.40;99.90
16643;DHT22;8435;52.184;5.406;2023-09-19T07:25:43;17.50;99.90
16643;DHT22;8435;52.184;5.406;2023-09-19T07:28:11;17.50;99.90
16643;DHT22;8435;52.184;5.406;2023-09-19T07:30:40;17.60;99.90
16643;DHT22;8435;52.184;5.406;2023-09-19T07:33:07;17.60;99.90
16643;DHT22;8435;52.184;5.406;2023-09-19T07:35:36;17.70;99.90
16643;DHT22;8435;52.184;5.406;2023-09-19T07:38:05;17.80;99.90
16643;DHT22;8435;52.184;5.406;2023-09-19T07:40:32;17.90;99.90
16643;DHT22;8435;52.184;5.406;2023-09-19T07:43:03;17.90;99.90
16643;DHT22;8435;52.184;5.406;2023-09-19T07:45:30;18.10;99.90
16643;DHT22;8435;52.184;5.406;2023-09-19T07:47:59;18.20;99.90
16643;DHT22;8435;52.184;5.406;2023-09-19T07:50:27;18.40;99.90
16643;DHT22;8435;52.184;5.406;2023-09-19T07:52:54;18.60;99.90
16643;DHT22;8435;52.184;5.406;2023-09-19T07:55:22;18.70;99.90
16643;DHT22;8435;52.184;5.406;2023-09-19T07:57:51;18.90;99.90
16643;DHT22;8435;52.184;5.406;2023-09-19T08:00:18;19.10;99.90
16643;DHT22;8435;52.184;5.406;2023-09-19T08:02:45;19.30;99.90
16643;DHT22;8435;52.184;5.406;2023-09-19T08:05:14;19.40;99.90
16643;DHT22;8435;52.184;5.406;2023-09-19T08:07:45;19.50;99.90
16643;DHT22;8435;52.184;5.406;2023-09-19T08:10:14;19.60;99.90
16643;DHT22;8435;52.184;5.406;2023-09-19T08:12:42;19.70;99.90
16643;DHT22;8435;52.184;5.406;2023-09-19T08:15:12;19.80;99.90
16643;DHT22;8435;52.184;5.406;2023-09-19T08:17:39;19.90;99.90
16643;DHT22;8435;52.184;5.406;2023-09-19T08:20:07;20.00;99.90
16643;DHT22;8435;52.184;5.406;2023-09-19T08:22:43;20.10;99.90
16643;DHT22;8435;52.184;5.406;2023-09-19T08:25:12;20.20;99.90
16643;DHT22;8435;52.184;5.406;2023-09-19T08:27:39;20.30;99.90
16643;DHT22;8435;52.184;5.406;2023-09-19T08:30:06;20.40;99.90
16643;DHT22;8435;52.184;5.406;2023-09-19T08:32:33;20.40;99.90
16643;DHT22;8435;52.184;5.406;2023-09-19T08:35:00;20.50;99.90
16643;DHT22;8435;52.184;5.406;2023-09-19T08:37:27;20.50;99.90
16643;DHT22;8435;52.184;5.406;2023-09-19T08:39:55;20.60;99.90
16643;DHT22;8435;52.184;5.406;2023-09-19T08:42:23;20.60;99.70
16643;DHT22;8435;52.184;5.406;2023-09-19T08:44:52;20.60;99.90
16643;DHT22;8435;52.184;5.406;2023-09-19T08:47:28;20.70;99.80
16643;DHT22;8435;52.184;5.406;2023-09-19T08:50:10;20.80;99.50
16643;DHT22;8435;52.184;5.406;2023-09-19T08:52:41;20.80;99.60
16643;DHT22;8435;52.184;5.406;2023-09-19T08:55:12;20.90;99.60
16643;DHT22;8435;52.184;5.406;2023-09-19T08:57:45;21.00;99.80
16643;DHT22;8435;52.184;5.406;2023-09-19T09:00:15;21.10;99.50
16643;DHT22;8435;52.184;5.406;2023-09-19T09:02:44;21.10;99.20
16643;DHT22;8435;52.184;5.406;2023-09-19T09:05:13;21.20;99.30
16643;DHT22;8435;52.184;5.406;2023-09-19T09:07:42;21.30;99.10
16643;DHT22;8435;52.184;5.406;2023-09-19T09:10:11;21.40;98.90
16643;DHT22;8435;52.184;5.406;2023-09-19T09:12:38;21.40;98.70
16643;DHT22;8435;52.184;5.406;2023-09-19T09:15:07;21.60;98.80
16643;DHT22;8435;52.184;5.406;2023-09-19T09:17:37;21.70;98.80
16643;DHT22;8435;52.184;5.406;2023-09-19T09:20:07;21.80;98.70
16643;DHT22;8435;52.184;5.406;2023-09-19T09:22:35;21.90;98.30
16643;DHT22;8435;52.184;5.406;2023-09-19T09:25:06;22.00;98.20
16643;DHT22;8435;52.184;5.406;2023-09-19T09:27:35;22.10;98.00
16643;DHT22;8435;52.184;5.406;2023-09-19T09:30:02;22.20;97.00
16643;DHT22;8435;52.184;5.406;2023-09-19T09:32:30;22.20;97.20
16643;DHT22;8435;52.184;5.406;2023-09-19T09:35:01;22.20;97.20
16643;DHT22;8435;52.184;5.406;2023-09-19T09:37:30;22.20;97.20
16643;DHT22;8435;52.184;5.406;2023-09-19T09:39:57;22.10;97.30
16643;DHT22;8435;52.184;5.406;2023-09-19T09:42:45;22.10;97.00
16643;DHT22;8435;52.184;5.406;2023-09-19T09:45:16;22.10;96.70
16643;DHT22;8435;52.184;5.406;2023-09-19T09:47:46;22.00;96.60
16643;DHT22;8435;52.184;5.406;2023-09-19T09:50:26;22.00;97.00
16643;DHT22;8435;52.184;5.406;2023-09-19T09:52:55;22.00;96.70
16643;DHT22;8435;52.184;5.406;2023-09-19T09:56:00;21.90;96.50
16643;DHT22;8435;52.184;5.406;2023-09-19T09:58:31;21.90;96.80
16643;DHT22;8435;52.184;5.406;2023-09-19T10:00:58;21.80;97.00
16643;DHT22;8435;52.184;5.406;2023-09-19T10:03:35;21.80;97.10
16643;DHT22;8435;52.184;5.406;2023-09-19T10:06:06;21.80;96.90
16643;DHT22;8435;52.184;5.406;2023-09-19T10:09:00;21.80;97.10
16643;DHT22;8435;52.184;5.406;2023-09-19T10:11:41;21.70;96.70
16643;DHT22;8435;52.184;5.406;2023-09-19T10:14:11;21.70;96.90
16643;DHT22;8435;52.184;5.406;2023-09-19T10:16:43;21.70;96.90
16643;DHT22;8435;52.184;5.406;2023-09-19T10:19:15;21.70;96.80
16643;DHT22;8435;52.184;5.406;2023-09-19T10:21:43;21.60;96.50
16643;DHT22;8435;52.184;5.406;2023-09-19T10:24:11;21.60;96.80
16643;DHT22;8435;52.184;5.406;2023-09-19T10:26:44;21.60;96.80
16643;DHT22;8435;52.184;5.406;2023-09-19T10:29:13;21.50;97.10
16643;DHT22;8435;52.184;5.406;2023-09-19T10:31:42;21.50;97.10
16643;DHT22;8435;52.184;5.406;2023-09-19T10:34:14;21.50;97.30
16643;DHT22;8435;52.184;5.406;2023-09-19T10:36:45;21.60;97.30
16643;DHT22;8435;52.184;5.406;2023-09-19T10:39:15;21.60;97.30
16643;DHT22;8435;52.184;5.406;2023-09-19T10:41:50;21.70;97.30
16643;DHT22;8435;52.184;5.406;2023-09-19T10:44:23;21.70;97.00
16643;DHT22;8435;52.184;5.406;2023-09-19T10:46:51;21.80;96.80
16643;DHT22;8435;52.184;5.406;2023-09-19T10:49:20;21.80;97.00
16643;DHT22;8435;52.184;5.406;2023-09-19T10:51:50;21.90;96.80
16643;DHT22;8435;52.184;5.406;2023-09-19T10:54:22;22.00;96.70
16643;DHT22;8435;52.184;5.406;2023-09-19T10:56:53;22.10;96.80
16643;DHT22;8435;52.184;5.406;2023-09-19T10:59:25;22.10;96.80
16643;DHT22;8435;52.184;5.406;2023-09-19T11:01:57;22.20;96.60
16643;DHT22;8435;52.184;5.406;2023-09-19T11:04:26;22.30;96.80
16643;DHT22;8435;52.184;5.406;2023-09-19T11:07:01;22.40;96.50
16643;DHT22;8435;52.184;5.406;2023-09-19T11:09:46;22.50;96.20
16643;DHT22;8435;52.184;5.406;2023-09-19T11:18:54;22.70;96.20
16643;DHT22;8435;52.184;5.406;2023-09-19T11:24:28;22.80;96.00
16643;DHT22;8435;52.184;5.406;2023-09-19T11:27:10;22.80;96.00
16643;DHT22;8435;52.184;5.406;2023-09-19T11:29:39;22.80;95.80
16643;DHT22;8435;52.184;5.406;2023-09-19T11:32:06;22.80;95.80
16643;DHT22;8435;52.184;5.406;2023-09-19T11:34:46;22.80;95.80
16643;DHT22;8435;52.184;5.406;2023-09-19T11:40:46;22.80;95.50
16643;DHT22;8435;52.184;5.406;2023-09-19T11:43:32;22.70;95.70
16643;DHT22;8435;52.184;5.406;2023-09-19T11:46:08;22.70;94.90
16643;DHT22;8435;52.184;5.406;2023-09-19T11:48:38;22.70;95.40
16643;DHT22;8435;52.184;5.406;2023-09-19T11:51:15;22.70;95.60
16643;DHT22;8435;52.184;5.406;2023-09-19T11:53:48;22.70;95.00
16643;DHT22;8435;52.184;5.406;2023-09-19T11:56:19;22.70;95.60
16643;DHT22;8435;52.184;5.406;2023-09-19T11:58:46;22.70;95.50
16643;DHT22;8435;52.184;5.406;2023-09-19T12:01:22;22.70;95.40
16643;DHT22;8435;52.184;5.406;2023-09-19T12:03:53;22.70;95.40
16643;DHT22;8435;52.184;5.406;2023-09-19T12:06:22;22.70;95.30
16643;DHT22;8435;52.184;5.406;2023-09-19T12:08:51;22.70;95.30
16643;DHT22;8435;52.184;5.406;2023-09-19T12:11:21;22.70;95.50
16643;DHT22;8435;52.184;5.406;2023-09-19T12:13:51;22.70;95.50
16643;DHT22;8435;52.184;5.406;2023-09-19T12:16:20;22.70;95.40
16643;DHT22;8435;52.184;5.406;2023-09-19T12:18:49;22.70;95.10
16643;DHT22;8435;52.184;5.406;2023-09-19T12:21:29;22.70;94.90
16643;DHT22;8435;52.184;5.406;2023-09-19T12:24:04;22.70;94.90
16643;DHT22;8435;52.184;5.406;2023-09-19T12:26:39;22.60;95.10
16643;DHT22;8435;52.184;5.406;2023-09-19T12:29:14;22.60;94.90
16643;DHT22;8435;52.184;5.406;2023-09-19T12:31:53;22.60;95.00
16643;DHT22;8435;52.184;5.406;2023-09-19T12:34:24;22.60;95.00
16643;DHT22;8435;52.184;5.406;2023-09-19T12:37:10;22.60;95.00
16643;DHT22;8435;52.184;5.406;2023-09-19T12:39:47;22.50;94.30
16643;DHT22;8435;52.184;5.406;2023-09-19T12:42:17;22.50;95.00
16643;DHT22;8435;52.184;5.406;2023-09-19T12:44:45;22.50;95.00
16643;DHT22;8435;52.184;5.406;2023-09-19T12:47:15;22.50;95.00
16643;DHT22;8435;52.184;5.406;2023-09-19T12:50:11;22.50;95.30
16643;DHT22;8435;52.184;5.406;2023-09-19T12:52:47;22.50;95.20
16643;DHT22;8435;52.184;5.406;2023-09-19T12:55:23;22.40;95.10
16643;DHT22;8435;52.184;5.406;2023-09-19T12:58:01;22.40;95.10
16643;DHT22;8435;52.184;5.406;2023-09-19T13:00:34;22.40;95.20
16643;DHT22;8435;52.184;5.406;2023-09-19T13:03:16;22.30;95.20
16643;DHT22;8435;52.184;5.406;2023-09-19T13:05:52;22.30;95.30
16643;DHT22;8435;52.184;5.406;2023-09-19T13:08:25;22.30;95.20
16643;DHT22;8435;52.184;5.406;2023-09-19T13:11:07;22.30;95.20
16643;DHT22;8435;52.184;5.406;2023-09-19T13:13:37;22.30;95.40
16643;DHT22;8435;52.184;5.406;2023-09-19T13:16:04;22.40;95.40
16643;DHT22;8435;52.184;5.406;2023-09-19T13:18:44;22.30;95.30
16643;DHT22;8435;52.184;5.406;2023-09-19T13:21:12;22.30;95.20
16643;DHT22;8435;52.184;5.406;2023-09-19T13:23:49;22.30;95.20
16643;DHT22;8435;52.184;5.406;2023-09-19T13:26:17;22.30;95.60
16643;DHT22;8435;52.184;5.406;2023-09-19T13:28:44;22.20;95.60
16643;DHT22;8435;52.184;5.406;2023-09-19T13:31:13;22.20;95.80
16643;DHT22;8435;52.184;5.406;2023-09-19T13:33:43;22.20;96.00
16643;DHT22;8435;52.184;5.406;2023-09-19T13:36:11;22.20;96.00
16643;DHT22;8435;52.184;5.406;2023-09-19T13:38:38;22.20;96.30
16643;DHT22;8435;52.184;5.406;2023-09-19T13:41:06;22.20;96.30
16643;DHT22;8435;52.184;5.406;2023-09-19T13:43:33;22.20;96.30
16643;DHT22;8435;52.184;5.406;2023-09-19T13:46:00;22.20;96.40
16643;DHT22;8435;52.184;5.406;2023-09-19T13:48:28;22.20;96.30
16643;DHT22;8435;52.184;5.406;2023-09-19T13:50:55;22.30;96.30
16643;DHT22;8435;52.184;5.406;2023-09-19T13:53:24;22.30;96.10
16643;DHT22;8435;52.184;5.406;2023-09-19T13:55:51;22.30;96.00
16643;DHT22;8435;52.184;5.406;2023-09-19T13:58:19;22.30;96.10
16643;DHT22;8435;52.184;5.406;2023-09-19T14:00:46;22.30;95.90
16643;DHT22;8435;52.184;5.406;2023-09-19T14:03:13;22.40;95.80
16643;DHT22;8435;52.184;5.406;2023-09-19T14:05:40;22.40;95.80
16643;DHT22;8435;52.184;5.406;2023-09-19T14:08:08;22.30;95.70
16643;DHT22;8435;52.184;5.406;2023-09-19T14:10:35;22.30;95.80
16643;DHT22;8435;52.184;5.406;2023-09-19T14:13:01;22.30;95.70
16643;DHT22;8435;52.184;5.406;2023-09-19T14:15:29;22.30;95.80
16643;DHT22;8435;52.184;5.406;2023-09-19T14:17:56;22.30;95.90
16643;DHT22;8435;52.184;5.406;2023-09-19T14:20:24;22.20;95.90
16643;DHT22;8435;52.184;5.406;2023-09-19T14:22:52;22.20;95.70
16643;DHT22;8435;52.184;5.406;2023-09-19T14:25:21;22.20;95.60
16643;DHT22;8435;52.184;5.406;2023-09-19T14:27:48;22.20;95.60
16643;DHT22;8435;52.184;5.406;2023-09-19T14:30:15;22.20;95.80
16643;DHT22;8435;52.184;5.406;2023-09-19T14:32:43;22.20;95.70
16643;DHT22;8435;52.184;5.406;2023-09-19T14:35:10;22.20;95.80
16643;DHT22;8435;52.184;5.406;2023-09-19T14:37:40;22.10;95.50
16643;DHT22;8435;52.184;5.406;2023-09-19T14:40:08;22.10;95.60
16643;DHT22;8435;52.184;5.406;2023-09-19T14:42:38;22.10;95.90
16643;DHT22;8435;52.184;5.406;2023-09-19T14:45:06;22.10;96.00
16643;DHT22;8435;52.184;5.406;2023-09-19T14:47:33;22.00;96.00
16643;DHT22;8435;52.184;5.406;2023-09-19T14:50:04;22.00;96.20
16643;DHT22;8435;52.184;5.406;2023-09-19T14:52:32;22.00;96.10
16643;DHT22;8435;52.184;5.406;2023-09-19T14:54:59;21.90;96.00
16643;DHT22;8435;52.184;5.406;2023-09-19T14:57:27;21.90;96.00
16643;DHT22;8435;52.184;5.406;2023-09-19T14:59:54;21.90;96.00
16643;DHT22;8435;52.184;5.406;2023-09-19T15:02:23;21.80;96.10
16643;DHT22;8435;52.184;5.406;2023-09-19T15:04:51;21.80;95.90
16643;DHT22;8435;52.184;5.406;2023-09-19T15:07:19;21.80;95.90
16643;DHT22;8435;52.184;5.406;2023-09-19T15:09:46;21.80;96.20
16643;DHT22;8435;52.184;5.406;2023-09-19T15:12:13;21.80;96.20
16643;DHT22;8435;52.184;5.406;2023-09-19T15:14:40;21.80;96.30
16643;DHT22;8435;52.184;5.406;2023-09-19T15:17:07;21.70;96.50
16643;DHT22;8435;52.184;5.406;2023-09-19T15:19:34;21.70;96.30
16643;DHT22;8435;52.184;5.406;2023-09-19T15:22:04;21.70;96.30
16643;DHT22;8435;52.184;5.406;2023-09-19T15:24:32;21.70;96.50
16643;DHT22;8435;52.184;5.406;2023-09-19T15:26:59;21.70;96.70
16643;DHT22;8435;52.184;5.406;2023-09-19T15:29:27;21.70;96.60
16643;DHT22;8435;52.184;5.406;2023-09-19T15:31:55;21.60;96.70
16643;DHT22;8435;52.184;5.406;2023-09-19T15:34:27;21.60;96.70
16643;DHT22;8435;52.184;5.406;2023-09-19T15:36:54;21.60;97.10
16643;DHT22;8435;52.184;5.406;2023-09-19T15:39:21;21.60;96.90
16643;DHT22;8435;52.184;5.406;2023-09-19T15:41:50;21.50;96.80
16643;DHT22;8435;52.184;5.406;2023-09-19T15:44:20;21.50;96.80
16643;DHT22;8435;52.184;5.406;2023-09-19T15:46:48;21.50;96.80
16643;DHT22;8435;52.184;5.406;2023-09-19T15:49:15;21.50;96.90
16643;DHT22;8435;52.184;5.406;2023-09-19T15:51:43;21.40;97.10
16643;DHT22;8435;52.184;5.406;2023-09-19T15:54:11;21.40;97.30
16643;DHT22;8435;52.184;5.406;2023-09-19T15:56:40;21.40;97.40
16643;DHT22;8435;52.184;5.406;2023-09-19T15:59:09;21.40;97.80
16643;DHT22;8435;52.184;5.406;2023-09-19T16:01:44;21.30;97.70
16643;DHT22;8435;52.184;5.406;2023-09-19T16:04:13;21.40;97.80
16643;DHT22;8435;52.184;5.406;2023-09-19T16:06:42;21.20;97.70
16643;DHT22;8435;52.184;5.406;2023-09-19T16:09:09;21.20;97.90
16643;DHT22;8435;52.184;5.406;2023-09-19T16:11:36;21.10;97.90
16643;DHT22;8435;52.184;5.406;2023-09-19T16:14:03;21.00;97.90
16643;DHT22;8435;52.184;5.406;2023-09-19T16:16:32;21.10;98.00
16643;DHT22;8435;52.184;5.406;2023-09-19T16:19:02;21.00;98.00